Time;durP1;ratioP1;P1;durP2;ratioP2;P2;SDS_P1;SDS_P2;PMS_P1;PMS_P2;Temp;Humidity;BMP_temperature;BMP_pressure;BME280_temperature;BME280_humidity;BME280_pressure;Samples;Min_cycle;Max_cycle;Signal;HPM_P1;HPM_P2
2022/11/28 00:02:16;;;;;;;20.45;11.65;;;6.40;99.90;;;;;;4955285;29;20039;-67
2022/11/28 00:04:41;;;;;;;18.52;11.50;;;6.40;99.90;;;;;;4937840;29;20536;-67
2022/11/28 00:07:10;;;;;;;14.85;9.43;;;6.40;99.90;;;;;;4937326;29;20058;-69
2022/11/28 00:09:36;;;;;;;21.08;11.73;;;6.40;99.90;;;;;;4955045;29;20130;-67
2022/11/28 00:12:01;;;;;;;20.95;12.57;;;6.40;99.90;;;;;;4938059;29;20083;-67
2022/11/28 00:14:27;;;;;;;17.45;11.50;;;6.40;99.90;;;;;;4937744;29;20245;-68
2022/11/28 00:16:53;;;;;;;18.42;11.38;;;6.40;99.90;;;;;;4922048;29;20083;-68
2022/11/28 00:19:19;;;;;;;19.17;10.23;;;6.40;99.90;;;;;;4937687;29;20066;-68
2022/11/28 00:21:44;;;;;;;17.75;11.10;;;6.40;99.90;;;;;;4937299;29;20039;-67
2022/11/28 00:24:10;;;;;;;21.45;11.73;;;6.40;99.90;;;;;;4937592;29;20102;-67
2022/11/28 00:26:39;;;;;;;17.90;11.70;;;6.40;99.90;;;;;;4937489;29;20109;-68
2022/11/28 00:29:06;;;;;;;19.90;13.50;;;6.40;99.90;;;;;;4955036;29;20050;-68
2022/11/28 00:31:35;;;;;;;17.50;11.25;;;6.40;99.90;;;;;;4937634;29;20046;-68
2022/11/28 00:34:01;;;;;;;19.85;12.23;;;6.40;99.90;;;;;;4954713;29;20035;-67
2022/11/28 00:36:28;;;;;;;17.73;10.65;;;6.40;99.90;;;;;;4921126;29;20788;-68
2022/11/28 00:38:55;;;;;;;20.85;11.60;;;6.40;99.90;;;;;;4920759;29;20520;-67
2022/11/28 00:41:24;;;;;;;17.52;11.35;;;6.40;99.90;;;;;;4953914;29;20039;-67
2022/11/28 00:44:01;;;;;;;18.48;11.35;;;6.40;99.90;;;;;;4936217;29;20524;-68
2022/11/28 00:46:30;;;;;;;18.25;11.52;;;6.40;99.90;;;;;;4926059;29;20062;-68
2022/11/28 00:48:59;;;;;;;19.00;11.48;;;6.50;99.90;;;;;;4936821;29;20394;-68
2022/11/28 00:51:30;;;;;;;15.50;10.93;;;6.40;99.90;;;;;;4921432;29;20039;-68
2022/11/28 00:53:58;;;;;;;18.63;11.57;;;6.40;99.90;;;;;;4954197;29;20039;-67
2022/11/28 00:56:30;;;;;;;18.58;12.57;;;6.40;99.90;;;;;;4953872;29;20126;-67
2022/11/28 00:58:58;;;;;;;18.33;11.88;;;6.40;99.90;;;;;;4937058;29;20504;-68
2022/11/28 01:01:33;;;;;;;19.65;12.45;;;6.40;99.90;;;;;;4937568;29;20078;-67
2022/11/28 01:04:09;;;;;;;14.52;8.77;;;6.40;99.90;;;;;;4936632;29;20188;-67
2022/11/28 01:06:42;;;;;;;18.98;11.73;;;6.40;99.90;;;;;;4937203;29;20066;-69
2022/11/28 01:09:20;;;;;;;22.83;12.50;;;6.40;99.90;;;;;;4921807;29;20054;-67
2022/11/28 01:11:50;;;;;;;22.60;13.07;;;6.40;99.90;;;;;;4937005;29;20039;-67
2022/11/28 01:14:19;;;;;;;13.68;7.43;;;6.40;99.90;;;;;;4936455;29;20055;-67
2022/11/28 01:16:46;;;;;;;24.38;13.35;;;6.40;99.90;;;;;;4920342;29;20098;-67
2022/11/28 01:19:16;;;;;;;21.17;12.55;;;6.30;99.90;;;;;;4936368;29;21480;-67
2022/11/28 01:21:42;;;;;;;21.33;14.05;;;6.40;99.90;;;;;;4936693;29;20047;-67
2022/11/28 01:24:10;;;;;;;22.67;15.13;;;6.40;99.90;;;;;;4935408;29;20490;-67
2022/11/28 01:26:38;;;;;;;21.10;12.93;;;6.40;99.90;;;;;;4936350;29;20458;-67
2022/11/28 01:29:03;;;;;;;26.63;15.35;;;6.40;99.90;;;;;;4934646;29;20053;-67
2022/11/28 01:31:30;;;;;;;26.90;15.18;;;6.40;99.90;;;;;;4933383;28;20696;-67
2022/11/28 01:33:59;;;;;;;21.70;13.15;;;6.40;99.90;;;;;;4950769;28;20094;-67
2022/11/28 01:36:26;;;;;;;28.55;15.02;;;6.40;99.90;;;;;;4933763;29;20035;-67
2022/11/28 01:38:55;;;;;;;28.80;16.75;;;6.40;99.90;;;;;;4949518;29;20097;-67
2022/11/28 01:41:25;;;;;;;25.27;14.85;;;6.40;99.90;;;;;;4936001;29;20039;-66
2022/11/28 01:44:29;;;;;;;23.58;15.45;;;6.40;99.90;;;;;;4933859;29;20493;-66
2022/11/28 01:46:56;;;;;;;25.17;15.75;;;6.40;99.90;;;;;;4853942;29;20049;-67
2022/11/28 01:49:34;;;;;;;31.38;17.33;;;6.50;99.90;;;;;;4839301;29;20068;-67
2022/11/28 01:52:11;;;;;;;26.05;16.00;;;6.50;99.90;;;;;;4839396;29;20069;-67
2022/11/28 01:54:41;;;;;;;24.45;14.88;;;6.50;99.90;;;;;;4836872;29;20419;-67
2022/11/28 01:57:16;;;;;;;27.73;15.75;;;6.50;99.90;;;;;;4822489;29;20398;-67
2022/11/28 01:59:47;;;;;;;25.45;14.57;;;6.50;99.90;;;;;;4853289;29;20101;-67
2022/11/28 02:02:32;;;;;;;26.65;16.40;;;6.50;99.90;;;;;;4823288;29;20053;-67
2022/11/28 02:04:59;;;;;;;27.02;14.88;;;6.60;99.90;;;;;;4852713;29;20120;-67
2022/11/28 02:07:26;;;;;;;24.75;15.05;;;6.60;99.90;;;;;;4823585;29;20049;-67
2022/11/28 02:09:55;;;;;;;26.60;16.25;;;6.60;99.90;;;;;;4855851;29;20128;-66
2022/11/28 02:12:46;;;;;;;19.50;11.68;;;6.60;99.90;;;;;;4856064;29;20101;-68
2022/11/28 02:15:52;;;;;;;30.70;17.10;;;6.60;99.90;;;;;;4824681;29;20053;-67
2022/11/28 02:18:35;;;;;;;25.45;15.32;;;6.60;99.90;;;;;;4837069;29;20057;-67
2022/11/28 02:21:23;;;;;;;22.08;15.20;;;6.60;99.90;;;;;;4873151;29;20083;-67
2022/11/28 02:23:55;;;;;;;23.30;14.95;;;6.60;99.90;;;;;;4913932;29;20051;-67
2022/11/28 02:26:55;;;;;;;27.75;15.52;;;6.60;99.90;;;;;;4915178;29;20040;-67
2022/11/28 02:29:38;;;;;;;25.58;15.20;;;6.60;99.90;;;;;;4930654;29;20486;-67
2022/11/28 02:32:33;;;;;;;26.08;16.65;;;6.60;99.90;;;;;;4930413;29;20391;-67
2022/11/28 02:35:21;;;;;;;26.58;15.35;;;6.60;99.90;;;;;;4930047;29;20079;-67
2022/11/28 02:38:10;;;;;;;23.55;13.48;;;6.60;99.90;;;;;;4929862;29;20051;-68
2022/11/28 02:41:00;;;;;;;23.90;14.38;;;6.60;99.90;;;;;;4835180;29;20049;-67
2022/11/28 02:43:54;;;;;;;28.33;17.15;;;6.70;99.90;;;;;;4819954;29;20045;-68
2022/11/28 02:46:49;;;;;;;28.83;17.08;;;6.70;99.90;;;;;;4818890;29;20050;-67
2022/11/28 02:49:44;;;;;;;24.40;13.60;;;6.70;99.90;;;;;;4835227;29;20038;-67
2022/11/28 02:52:22;;;;;;;27.10;14.85;;;6.70;99.90;;;;;;4831994;29;20052;-67
2022/11/28 02:54:53;;;;;;;19.08;13.00;;;6.70;99.90;;;;;;4819155;29;20526;-67
2022/11/28 02:57:20;;;;;;;21.92;12.98;;;6.70;99.90;;;;;;4835101;29;20045;-67
2022/11/28 02:59:50;;;;;;;29.05;16.95;;;6.70;99.90;;;;;;4803898;29;20402;-67
2022/11/28 03:02:27;;;;;;;28.58;17.70;;;6.80;99.90;;;;;;4805303;29;20049;-67
2022/11/28 03:05:07;;;;;;;26.73;16.88;;;6.80;99.90;;;;;;4833501;29;20410;-67
2022/11/28 03:07:52;;;;;;;27.35;15.60;;;6.80;99.90;;;;;;4834471;29;20050;-67
2022/11/28 03:10:56;;;;;;;36.60;19.52;;;6.80;99.90;;;;;;4820775;29;20164;-67
2022/11/28 03:13:32;;;;;;;27.67;17.05;;;6.80;99.90;;;;;;4821812;29;20042;-67
2022/11/28 03:16:29;;;;;;;26.52;16.00;;;6.90;99.90;;;;;;4819183;29;20094;-67
2022/11/28 03:19:36;;;;;;;25.57;16.07;;;6.90;99.90;;;;;;4913854;29;20047;-67
2022/11/28 03:22:10;;;;;;;26.13;15.00;;;6.90;99.90;;;;;;4930154;29;20076;-67
2022/11/28 03:25:02;;;;;;;27.02;15.30;;;6.90;99.90;;;;;;4897836;29;20051;-67
2022/11/28 03:27:58;;;;;;;26.80;15.95;;;7.00;99.90;;;;;;4916298;29;20118;-67
2022/11/28 03:30:48;;;;;;;24.73;14.95;;;7.00;99.90;;;;;;4916431;29;20043;-67
2022/11/28 03:33:20;;;;;;;27.83;16.13;;;7.00;99.90;;;;;;4929905;29;20036;-67
2022/11/28 03:35:53;;;;;;;24.70;14.82;;;7.00;99.90;;;;;;4936103;29;20035;-67
2022/11/28 03:38:37;;;;;;;26.88;17.17;;;7.10;99.90;;;;;;4919186;29;20099;-67
2022/11/28 03:41:11;;;;;;;27.42;17.58;;;7.10;99.90;;;;;;4933844;29;20053;-67
2022/11/28 03:43:48;;;;;;;29.17;18.90;;;7.10;99.90;;;;;;4917269;29;20732;-67
2022/11/28 03:46:18;;;;;;;26.52;16.38;;;7.10;99.90;;;;;;4933086;29;20039;-67
2022/11/28 03:48:49;;;;;;;27.38;16.40;;;7.10;99.90;;;;;;4917184;29;20031;-67
2022/11/28 03:51:26;;;;;;;26.63;15.05;;;7.10;99.90;;;;;;4917261;29;20043;-67
2022/11/28 03:54:05;;;;;;;30.30;16.25;;;7.20;99.90;;;;;;4918138;29;20036;-67
2022/11/28 03:56:43;;;;;;;26.27;15.75;;;7.20;99.90;;;;;;4916146;29;20098;-67
2022/11/28 03:59:30;;;;;;;25.67;15.95;;;7.20;99.90;;;;;;4932105;29;20047;-67
2022/11/28 04:02:24;;;;;;;23.63;14.95;;;7.20;99.90;;;;;;4917108;29;20048;-67
2022/11/28 04:05:14;;;;;;;25.08;15.75;;;7.20;99.90;;;;;;4932282;29;20561;-68
2022/11/28 04:07:52;;;;;;;23.25;13.38;;;7.30;99.90;;;;;;4915528;29;20046;-67
2022/11/28 04:10:21;;;;;;;23.13;15.43;;;7.30;99.90;;;;;;4917752;29;20036;-67
2022/11/28 04:12:53;;;;;;;23.42;14.00;;;7.30;99.90;;;;;;4916038;29;20047;-67
2022/11/28 04:15:39;;;;;;;15.07;9.75;;;7.30;99.90;;;;;;4946245;29;20063;-67
2022/11/28 04:18:15;;;;;;;24.80;14.70;;;7.30;99.90;;;;;;4951338;29;20051;-67
2022/11/28 04:20:58;;;;;;;19.73;13.68;;;7.40;99.90;;;;;;4934295;29;20130;-67
2022/11/28 04:23:31;;;;;;;21.75;15.07;;;7.40;99.90;;;;;;4950946;29;20105;-67
2022/11/28 04:26:17;;;;;;;22.55;13.75;;;7.40;99.90;;;;;;4934642;29;20067;-67
2022/11/28 04:28:48;;;;;;;22.02;13.43;;;7.40;99.90;;;;;;4935716;29;20636;-67
2022/11/28 04:31:18;;;;;;;26.55;16.90;;;7.40;99.90;;;;;;4937145;29;20043;-67
2022/11/28 04:33:50;;;;;;;23.95;14.57;;;7.40;99.90;;;;;;4935016;28;20043;-67
2022/11/28 04:36:37;;;;;;;;;;;7.40;99.90;;;;;;4925605;28;20049;-68
2022/11/28 04:39:09;;;;;;;18.42;13.02;;;7.40;99.90;;;;;;4951708;28;20625;-67
2022/11/28 04:42:04;;;;;;;26.65;15.23;;;7.40;99.90;;;;;;4938383;29;20126;-67
2022/11/28 04:44:48;;;;;;;21.02;13.57;;;7.40;99.90;;;;;;4933972;29;20043;-67
2022/11/28 04:47:16;;;;;;;25.50;14.90;;;7.40;99.90;;;;;;4952280;28;20038;-67
2022/11/28 04:49:42;;;;;;;24.17;14.93;;;7.40;99.90;;;;;;4935745;29;20093;-67
2022/11/28 04:52:20;;;;;;;27.17;15.35;;;7.40;99.90;;;;;;4933506;29;20423;-67
2022/11/28 04:55:24;;;;;;;21.33;12.15;;;7.40;99.90;;;;;;4951758;29;20096;-67
2022/11/28 04:58:09;;;;;;;23.17;13.93;;;7.40;99.90;;;;;;4840458;29;20528;-67
2022/11/28 05:00:42;;;;;;;22.15;14.95;;;7.50;99.90;;;;;;4842521;29;20038;-67
2022/11/28 05:03:10;;;;;;;21.35;12.88;;;7.40;99.90;;;;;;4844369;29;20046;-67
2022/11/28 05:06:03;;;;;;;21.90;15.02;;;7.50;99.90;;;;;;4825198;29;20069;-67
2022/11/28 05:08:34;;;;;;;24.92;13.10;;;7.50;99.90;;;;;;4838724;29;20106;-67
2022/11/28 05:11:00;;;;;;;19.35;12.43;;;7.50;99.90;;;;;;4839993;29;20121;-67
2022/11/28 05:13:27;;;;;;;18.67;12.57;;;7.50;99.90;;;;;;4855358;29;20057;-67
2022/11/28 05:15:55;;;;;;;24.40;14.32;;;7.50;99.90;;;;;;4842099;29;20143;-68
2022/11/28 05:18:24;;;;;;;21.77;13.45;;;7.50;99.90;;;;;;4855394;29;20173;-67
2022/11/28 05:20:53;;;;;;;21.27;12.70;;;7.50;99.90;;;;;;4829484;29;20060;-67
2022/11/28 05:23:20;;;;;;;21.88;12.80;;;7.50;99.90;;;;;;4828754;29;20210;-67
2022/11/28 05:25:52;;;;;;;24.00;13.82;;;7.50;99.90;;;;;;4839779;29;20137;-67
2022/11/28 05:28:20;;;;;;;19.35;10.65;;;7.50;99.90;;;;;;4855305;29;20049;-67
2022/11/28 05:31:00;;;;;;;20.80;14.05;;;7.60;99.90;;;;;;4855544;29;20042;-67
2022/11/28 05:33:29;;;;;;;21.17;13.23;;;7.60;99.90;;;;;;4863132;29;20148;-68
2022/11/28 05:35:57;;;;;;;24.05;14.20;;;7.60;99.90;;;;;;4951599;29;20051;-67
2022/11/28 05:38:26;;;;;;;26.63;15.95;;;7.60;99.90;;;;;;4952602;28;20039;-67
2022/11/28 05:40:52;;;;;;;25.50;14.68;;;7.60;99.90;;;;;;4951532;28;20038;-67
2022/11/28 05:43:37;;;;;;;22.52;13.35;;;7.60;99.90;;;;;;4951489;29;20094;-67
2022/11/28 05:46:05;;;;;;;21.42;13.63;;;7.60;99.90;;;;;;4917529;29;20475;-68
2022/11/28 05:48:36;;;;;;;24.83;14.68;;;7.60;99.90;;;;;;4951997;29;20531;-67
2022/11/28 05:51:06;;;;;;;26.20;14.10;;;7.60;99.90;;;;;;4934294;29;20036;-67
2022/11/28 05:53:38;;;;;;;22.25;12.50;;;7.60;99.90;;;;;;4951403;28;20047;-68
2022/11/28 05:56:15;;;;;;;18.27;10.80;;;7.60;99.90;;;;;;4947914;29;20043;-69
2022/11/28 05:58:42;;;;;;;23.48;13.15;;;7.70;99.90;;;;;;4938411;28;20464;-67
2022/11/28 06:01:26;;;;;;;22.83;13.38;;;7.70;99.90;;;;;;4950732;28;20513;-67
2022/11/28 06:03:59;;;;;;;26.15;13.13;;;7.70;99.90;;;;;;4934000;29;20447;-68
2022/11/28 06:06:30;;;;;;;16.05;9.52;;;7.70;99.90;;;;;;4933702;29;20039;-67
2022/11/28 06:08:58;;;;;;;21.42;11.98;;;7.70;99.90;;;;;;4950901;29;20086;-67
2022/11/28 06:11:25;;;;;;;23.85;12.07;;;7.80;99.90;;;;;;4937746;28;20031;-68
2022/11/28 06:13:52;;;;;;;20.92;11.57;;;7.80;99.90;;;;;;4918462;29;20035;-67
2022/11/28 06:16:24;;;;;;;19.17;9.63;;;7.80;99.90;;;;;;4951292;28;20058;-67
2022/11/28 06:18:57;;;;;;;24.42;13.25;;;7.80;99.90;;;;;;4950834;28;20676;-67
2022/11/28 06:21:25;;;;;;;24.02;12.80;;;7.80;99.90;;;;;;4951287;29;20075;-68
2022/11/28 06:23:55;;;;;;;18.80;11.07;;;7.80;99.90;;;;;;4950733;28;20035;-68
2022/11/28 06:26:26;;;;;;;22.73;13.18;;;7.80;99.90;;;;;;4936468;29;20478;-67
2022/11/28 06:28:57;;;;;;;22.42;11.90;;;7.80;99.90;;;;;;4934357;29;20039;-67
2022/11/28 06:31:28;;;;;;;20.75;10.20;;;7.80;99.90;;;;;;4934042;29;20035;-68
2022/11/28 06:34:00;;;;;;;17.83;11.13;;;7.80;99.90;;;;;;4933678;28;20037;-67
2022/11/28 06:36:26;;;;;;;20.55;9.93;;;7.90;99.90;;;;;;4916993;29;20089;-68
2022/11/28 06:38:56;;;;;;;23.50;12.38;;;7.80;99.90;;;;;;4951449;28;20046;-67
2022/11/28 06:41:23;;;;;;;27.17;13.30;;;7.80;99.90;;;;;;4936550;28;20050;-67
2022/11/28 06:43:51;;;;;;;26.77;12.88;;;7.80;99.90;;;;;;4950454;28;20047;-68
2022/11/28 06:46:20;;;;;;;22.40;12.43;;;7.80;99.90;;;;;;4950529;29;20070;-67
2022/11/28 06:48:48;;;;;;;26.45;13.45;;;7.80;99.90;;;;;;4932961;29;20035;-67
2022/11/28 06:51:15;;;;;;;25.52;11.93;;;7.80;99.90;;;;;;4951110;28;20047;-67
2022/11/28 06:53:42;;;;;;;23.15;11.27;;;7.90;99.90;;;;;;4917482;29;20035;-68
2022/11/28 06:56:14;;;;;;;22.60;11.20;;;7.90;99.90;;;;;;4917845;29;20078;-68
2022/11/28 06:58:42;;;;;;;16.85;9.70;;;7.80;99.90;;;;;;4937401;29;20529;-68
2022/11/28 07:01:19;;;;;;;16.30;8.05;;;7.90;99.90;;;;;;4919996;29;20039;-68
2022/11/28 07:03:47;;;;;;;16.73;10.20;;;7.90;99.90;;;;;;4933339;29;20055;-68
2022/11/28 07:06:16;;;;;;;18.83;9.15;;;7.90;99.90;;;;;;4948086;28;20039;-68
2022/11/28 07:08:43;;;;;;;17.58;8.30;;;7.90;99.90;;;;;;4932686;29;20501;-68
2022/11/28 07:11:12;;;;;;;19.70;10.77;;;7.90;99.90;;;;;;4933366;29;20070;-68
2022/11/28 07:13:41;;;;;;;18.55;9.40;;;7.90;99.90;;;;;;4949971;29;20060;-68
2022/11/28 07:16:11;;;;;;;19.60;9.95;;;7.90;99.90;;;;;;4901731;29;20114;-68
2022/11/28 07:18:39;;;;;;;20.98;10.30;;;7.80;99.90;;;;;;4952289;28;20043;-67
2022/11/28 07:21:10;;;;;;;22.75;11.10;;;7.90;99.90;;;;;;4932502;29;20055;-67
2022/11/28 07:23:36;;;;;;;21.90;10.80;;;7.90;99.90;;;;;;4950070;28;20485;-68
2022/11/28 07:26:03;;;;;;;17.63;9.57;;;7.90;99.90;;;;;;4935294;29;20035;-68
2022/11/28 07:28:31;;;;;;;20.15;10.10;;;7.90;99.90;;;;;;4931536;29;20046;-68
2022/11/28 07:31:05;;;;;;;17.15;9.30;;;7.90;99.90;;;;;;4917579;29;20127;-68
2022/11/28 07:33:33;;;;;;;19.17;10.13;;;7.90;99.90;;;;;;4950389;28;20050;-68
2022/11/28 07:36:02;;;;;;;17.88;10.85;;;7.90;99.90;;;;;;4948263;28;20039;-68
2022/11/28 07:38:31;;;;;;;16.85;9.93;;;7.90;99.90;;;;;;4914279;29;20079;-68
2022/11/28 07:41:07;;;;;;;16.77;8.93;;;7.90;99.90;;;;;;4916531;29;20047;-68
2022/11/28 07:43:33;;;;;;;20.38;9.70;;;7.90;99.90;;;;;;4949973;28;20043;-68
2022/11/28 07:46:07;;;;;;;17.13;7.40;;;7.90;99.90;;;;;;4947201;28;20045;-68
2022/11/28 07:48:36;;;;;;;21.63;11.48;;;7.90;99.90;;;;;;4931369;29;20110;-68
2022/11/28 07:51:09;;;;;;;20.65;11.15;;;7.90;99.90;;;;;;4932180;29;20067;-68
2022/11/28 07:53:37;;;;;;;17.35;9.75;;;7.90;99.90;;;;;;4933739;29;20624;-68
2022/11/28 07:56:13;;;;;;;17.17;9.75;;;7.90;99.90;;;;;;4935489;29;20047;-68
2022/11/28 07:58:41;;;;;;;15.93;8.73;;;7.90;99.90;;;;;;4951470;28;20117;-68
2022/11/28 08:01:14;;;;;;;18.13;9.25;;;7.90;99.90;;;;;;4949683;28;20050;-68
2022/11/28 08:03:40;;;;;;;14.07;8.82;;;7.90;99.90;;;;;;4931636;29;20047;-68
2022/11/28 08:06:07;;;;;;;15.48;9.68;;;7.90;99.90;;;;;;4933786;29;20047;-68
2022/11/28 08:08:40;;;;;;;16.02;9.50;;;7.90;99.90;;;;;;4949715;28;20110;-68
2022/11/28 08:11:08;;;;;;;18.25;10.13;;;7.90;99.90;;;;;;4932041;29;20047;-68
2022/11/28 08:13:38;;;;;;;17.80;10.65;;;7.90;99.90;;;;;;4950564;28;20043;-68
2022/11/28 08:16:08;;;;;;;16.92;9.07;;;7.90;99.90;;;;;;4948927;28;20557;-68
2022/11/28 08:18:36;;;;;;;18.77;9.27;;;7.90;99.90;;;;;;4904839;28;20127;-68
2022/11/28 08:21:22;;;;;;;16.13;9.85;;;7.90;99.90;;;;;;4930569;29;20043;-68
2022/11/28 08:23:51;;;;;;;20.45;11.98;;;7.90;99.90;;;;;;4933310;29;20071;-67
2022/11/28 08:26:20;;;;;;;20.17;11.75;;;8.00;99.90;;;;;;4918707;28;20062;-68
2022/11/28 08:28:47;;;;;;;22.90;11.52;;;8.00;99.90;;;;;;4950129;29;20051;-68
2022/11/28 08:31:24;;;;;;;21.50;11.52;;;8.00;99.90;;;;;;4918794;28;20035;-67
2022/11/28 08:33:52;;;;;;;20.25;11.52;;;8.00;99.90;;;;;;4934244;29;20046;-68
2022/11/28 08:36:22;;;;;;;18.83;10.68;;;8.00;99.90;;;;;;4934471;29;20031;-67
2022/11/28 08:38:50;;;;;;;21.92;12.18;;;8.00;99.90;;;;;;4950119;29;20035;-67
2022/11/28 08:41:21;;;;;;;23.30;11.88;;;8.00;99.90;;;;;;4952184;28;20050;-67
2022/11/28 08:43:49;;;;;;;23.95;12.65;;;8.00;99.90;;;;;;4934511;28;20442;-67
2022/11/28 08:46:19;;;;;;;22.60;10.20;;;8.00;99.90;;;;;;4934650;28;20039;-67
2022/11/28 08:48:49;;;;;;;22.80;11.55;;;8.00;99.90;;;;;;4933742;28;20123;-68
2022/11/28 08:51:22;;;;;;;21.83;12.77;;;8.00;99.90;;;;;;4952226;28;20477;-67
2022/11/28 08:53:52;;;;;;;21.20;12.07;;;8.10;99.90;;;;;;4950637;28;20043;-67
2022/11/28 08:56:18;;;;;;;22.50;12.20;;;8.10;99.90;;;;;;4936547;28;20074;-67
2022/11/28 08:58:46;;;;;;;24.17;12.23;;;8.10;99.90;;;;;;4919278;29;20043;-67
2022/11/28 09:01:20;;;;;;;21.00;11.32;;;8.10;99.90;;;;;;4935030;28;20043;-67
2022/11/28 09:03:46;;;;;;;20.77;11.65;;;8.10;99.90;;;;;;4919305;28;20143;-68
2022/11/28 09:06:15;;;;;;;20.98;11.25;;;8.10;99.90;;;;;;4951347;28;20063;-67
2022/11/28 09:08:45;;;;;;;20.55;11.30;;;8.20;99.90;;;;;;4952674;28;20478;-67
2022/11/28 09:11:14;;;;;;;24.70;12.45;;;8.20;99.90;;;;;;4936141;28;20038;-67
2022/11/28 09:13:40;;;;;;;21.50;12.07;;;8.20;99.90;;;;;;4918738;29;20039;-67
2022/11/28 09:16:10;;;;;;;15.30;10.30;;;8.20;99.90;;;;;;4914535;29;20083;-67
2022/11/28 09:18:36;;;;;;;19.48;11.38;;;8.20;99.90;;;;;;4932061;29;20122;-67
2022/11/28 09:21:10;;;;;;;20.45;11.70;;;8.30;99.90;;;;;;4915408;29;20063;-68
2022/11/28 09:23:38;;;;;;;17.48;11.13;;;8.20;99.90;;;;;;4914160;29;20506;-67
2022/11/28 09:26:14;;;;;;;19.10;10.73;;;8.30;99.90;;;;;;4917182;29;20422;-67
2022/11/28 09:28:40;;;;;;;21.30;11.68;;;8.30;99.90;;;;;;4884034;29;20042;-67
2022/11/28 09:31:08;;;;;;;19.75;11.60;;;8.30;99.90;;;;;;4933839;29;20043;-67
2022/11/28 09:33:34;;;;;;;18.35;9.90;;;8.30;99.90;;;;;;4914188;29;20655;-67
2022/11/28 09:36:14;;;;;;;18.83;11.13;;;8.30;99.90;;;;;;4915522;29;20101;-67
2022/11/28 09:38:49;;;;;;;19.63;11.27;;;8.30;99.90;;;;;;4914535;29;20048;-68
2022/11/28 09:41:40;;;;;;;20.48;10.93;;;8.30;99.90;;;;;;4899290;29;20060;-67
2022/11/28 09:44:43;;;;;;;16.58;10.20;;;8.30;99.90;;;;;;4912999;29;20118;-67
2022/11/28 09:47:22;;;;;;;18.63;10.57;;;8.40;99.90;;;;;;4933674;29;20398;-67
2022/11/28 09:50:18;;;;;;;17.42;11.60;;;8.40;99.90;;;;;;4932970;29;20047;-67
2022/11/28 09:53:11;;;;;;;19.92;11.93;;;8.40;99.90;;;;;;4928867;29;20550;-67
2022/11/28 09:55:52;;;;;;;18.92;10.48;;;8.40;99.90;;;;;;4933989;29;20051;-67
2022/11/28 09:58:29;;;;;;;18.92;10.82;;;8.40;99.90;;;;;;4933671;29;20138;-67
2022/11/28 10:00:58;;;;;;;19.48;10.50;;;8.40;99.90;;;;;;4933741;29;20675;-67
2022/11/28 10:03:43;;;;;;;21.92;11.05;;;8.40;99.90;;;;;;4913836;29;20183;-67
2022/11/28 10:06:49;;;;;;;15.50;8.90;;;8.40;99.90;;;;;;4894649;29;20394;-67
2022/11/28 10:09:39;;;;;;;21.15;11.82;;;8.40;99.90;;;;;;4859462;29;20465;-67
2022/11/28 10:12:29;;;;;;;19.02;10.93;;;8.40;99.90;;;;;;4858957;29;20045;-67
2022/11/28 10:15:10;;;;;;;20.83;11.52;;;8.40;99.90;;;;;;4866563;29;20297;-67
2022/11/28 10:18:01;;;;;;;21.83;11.55;;;8.40;99.90;;;;;;4841021;29;20056;-67
2022/11/28 10:20:33;;;;;;;19.60;10.55;;;8.40;99.90;;;;;;4839947;29;20033;-67
2022/11/28 10:23:13;;;;;;;15.00;9.07;;;8.40;99.90;;;;;;4855483;29;20078;-67
2022/11/28 10:25:54;;;;;;;23.15;11.35;;;8.40;99.90;;;;;;4855885;29;20089;-67
2022/11/28 10:28:26;;;;;;;20.67;10.50;;;8.40;99.90;;;;;;4855974;29;20061;-67
2022/11/28 10:31:20;;;;;;;17.42;8.88;;;8.40;99.90;;;;;;4839910;29;20045;-67
2022/11/28 10:34:06;;;;;;;18.20;10.60;;;8.40;99.90;;;;;;4854111;29;20065;-67
2022/11/28 10:36:54;;;;;;;22.95;12.43;;;8.50;99.90;;;;;;4855898;29;20053;-67
2022/11/28 10:39:21;;;;;;;26.25;13.00;;;8.50;99.90;;;;;;4837600;29;20093;-67
2022/11/28 10:42:11;;;;;;;24.40;12.15;;;8.50;99.90;;;;;;4855768;29;20497;-67
2022/11/28 10:44:56;;;;;;;25.05;11.73;;;8.50;99.90;;;;;;4885615;29;20066;-67
2022/11/28 10:47:43;;;;;;;22.50;12.25;;;8.60;99.90;;;;;;4916054;29;20059;-67
2022/11/28 10:50:27;;;;;;;20.02;11.27;;;8.60;99.90;;;;;;4916238;29;20120;-67
2022/11/28 10:53:23;;;;;;;20.83;10.40;;;8.60;99.90;;;;;;4916002;29;20505;-67
2022/11/28 10:56:01;;;;;;;18.42;10.27;;;8.60;99.90;;;;;;4916130;29;20392;-67
2022/11/28 10:58:37;;;;;;;19.20;10.93;;;8.70;99.90;;;;;;4918418;29;20043;-67
2022/11/28 11:01:03;;;;;;;17.33;9.82;;;8.70;99.90;;;;;;4932943;29;20130;-67
2022/11/28 11:03:34;;;;;;;18.58;10.25;;;8.70;99.90;;;;;;4932959;29;20149;-67
2022/11/28 11:06:00;;;;;;;14.68;9.15;;;8.70;99.90;;;;;;4932576;29;20047;-67
2022/11/28 11:08:29;;;;;;;18.25;8.82;;;8.70;99.90;;;;;;4915904;29;20046;-67
2022/11/28 11:11:29;;;;;;;13.95;8.82;;;8.70;99.90;;;;;;4932834;29;20043;-67
2022/11/28 11:14:08;;;;;;;14.85;8.90;;;8.70;99.90;;;;;;4915348;29;20048;-67
2022/11/28 11:16:47;;;;;;;18.67;10.30;;;8.80;99.90;;;;;;4931471;29;20055;-67
2022/11/28 11:19:24;;;;;;;22.73;12.15;;;8.80;99.90;;;;;;4931662;29;20039;-67
2022/11/28 11:22:14;;;;;;;20.48;11.80;;;8.90;99.90;;;;;;4932686;29;20475;-67
2022/11/28 11:24:39;;;;;;;22.48;10.82;;;8.90;99.90;;;;;;4926660;29;20052;-67
2022/11/28 11:27:16;;;;;;;20.45;10.93;;;8.90;99.90;;;;;;4912054;29;20100;-68
2022/11/28 11:29:42;;;;;;;22.85;11.63;;;8.90;99.90;;;;;;4920611;29;20044;-67
2022/11/28 11:32:20;;;;;;;22.27;12.60;;;8.90;99.90;;;;;;4914486;29;20043;-67
2022/11/28 11:34:47;;;;;;;29.08;13.73;;;9.00;99.90;;;;;;4932863;29;20086;-67
2022/11/28 11:37:34;;;;;;;25.73;12.63;;;9.00;99.90;;;;;;4931374;29;20083;-67
2022/11/28 11:40:00;;;;;;;24.40;13.23;;;9.00;99.90;;;;;;4932855;29;20044;-67
2022/11/28 11:42:28;;;;;;;20.88;12.63;;;9.00;99.90;;;;;;4930648;29;20044;-67
2022/11/28 11:44:57;;;;;;;28.25;14.35;;;9.00;99.90;;;;;;4933426;29;20048;-67
2022/11/28 11:47:41;;;;;;;;;;;9.00;99.90;;;;;;4902344;29;20562;-67
2022/11/28 11:50:16;;;;;;;31.02;14.07;;;9.00;99.90;;;;;;4931785;29;19931;-67
2022/11/28 11:52:42;;;;;;;25.73;12.57;;;9.00;99.90;;;;;;4913769;29;20186;-67
2022/11/28 11:55:15;;;;;;;32.10;14.18;;;9.00;99.90;;;;;;4914543;29;20043;-67
2022/11/28 11:57:53;;;;;;;31.75;14.82;;;9.00;99.90;;;;;;4918380;29;20063;-67
2022/11/28 12:00:20;;;;;;;25.45;14.02;;;9.00;99.90;;;;;;4915716;29;20183;-67
2022/11/28 12:03:12;;;;;;;34.17;14.95;;;9.00;99.90;;;;;;4917035;29;20051;-67
2022/11/28 12:05:57;;;;;;;25.55;13.05;;;9.10;99.90;;;;;;4919524;29;20562;-67
2022/11/28 12:08:42;;;;;;;32.17;15.30;;;9.10;99.90;;;;;;4924078;29;20051;-68
2022/11/28 12:11:38;;;;;;;27.05;14.13;;;9.10;99.90;;;;;;4916731;29;20047;-67
2022/11/28 12:14:30;;;;;;;28.70;13.93;;;9.10;99.90;;;;;;4928490;29;20040;-67
2022/11/28 12:17:11;;;;;;;31.00;14.70;;;9.10;99.90;;;;;;4938161;29;20121;-67
2022/11/28 12:19:45;;;;;;;26.30;14.20;;;9.10;99.90;;;;;;4934786;29;20051;-67
2022/11/28 12:22:33;;;;;;;29.83;13.85;;;9.10;99.90;;;;;;4954952;29;20051;-67
2022/11/28 12:25:02;;;;;;;32.15;14.50;;;9.10;99.90;;;;;;4950838;28;20050;-67
2022/11/28 12:28:05;;;;;;;32.05;15.25;;;9.00;99.90;;;;;;4938081;29;20114;-67
2022/11/28 12:31:08;;;;;;;27.35;13.95;;;9.10;99.90;;;;;;4954478;29;20153;-67
2022/11/28 12:33:49;;;;;;;24.50;12.98;;;9.10;99.90;;;;;;4936938;29;20062;-67
2022/11/28 12:36:36;;;;;;;29.67;13.40;;;9.00;99.90;;;;;;4954808;29;20121;-67
2022/11/28 12:39:02;;;;;;;29.55;15.07;;;9.00;99.90;;;;;;4956282;28;20078;-67
2022/11/28 12:41:34;;;;;;;30.85;15.07;;;9.00;99.90;;;;;;4920982;29;20043;-67
2022/11/28 12:44:11;;;;;;;33.70;15.30;;;9.00;99.90;;;;;;4937253;29;20509;-67
2022/11/28 12:46:48;;;;;;;33.20;15.50;;;9.00;99.90;;;;;;4954199;29;20506;-67
2022/11/28 12:49:21;;;;;;;32.05;14.82;;;9.00;99.90;;;;;;4937356;29;20094;-67
2022/11/28 12:52:23;;;;;;;39.83;15.40;;;9.00;99.90;;;;;;4937304;29;20114;-67
2022/11/28 12:54:58;;;;;;;36.53;15.98;;;9.00;99.90;;;;;;4953682;29;20049;-67
2022/11/28 12:57:23;;;;;;;40.13;16.75;;;9.00;99.90;;;;;;4937124;29;20047;-67
2022/11/28 13:00:13;;;;;;;36.67;16.23;;;9.00;99.90;;;;;;4961981;28;20046;-67
2022/11/28 13:03:08;;;;;;;46.85;18.02;;;9.00;99.90;;;;;;4936964;29;20058;-67
2022/11/28 13:05:52;;;;;;;49.22;18.30;;;9.00;99.90;;;;;;4920950;29;20054;-67
2022/11/28 13:08:31;;;;;;;40.25;17.67;;;9.00;99.90;;;;;;4920152;29;20039;-67
2022/11/28 13:11:18;;;;;;;43.75;18.55;;;9.10;99.90;;;;;;4954095;29;20043;-67
2022/11/28 13:13:53;;;;;;;43.30;18.42;;;9.10;99.90;;;;;;4936660;29;20046;-67
2022/11/28 13:16:23;;;;;;;49.20;17.55;;;9.10;99.90;;;;;;4936416;29;20067;-67
2022/11/28 13:19:09;;;;;;;45.95;18.70;;;9.10;99.90;;;;;;4936650;29;20055;-67
2022/11/28 13:21:56;;;;;;;60.17;19.55;;;9.10;99.90;;;;;;4953693;29;20051;-67